createdAt,value
2019-01-28T00:02:21.240Z,1.4
2019-01-28T00:05:20.205Z,1.2
2019-01-28T00:08:20.549Z,1.2
2019-01-28T00:11:20.663Z,1.8
2019-01-28T00:14:20.450Z,1.1
2019-01-28T00:17:20.451Z,1.2
2019-01-28T00:20:20.812Z,1.2
2019-01-28T00:23:20.413Z,1.7
2019-01-28T00:26:21.184Z,1.3
2019-01-28T00:29:20.548Z,1.4
2019-01-28T00:32:20.113Z,1.2
2019-01-28T00:35:20.651Z,1.2
2019-01-28T00:38:20.172Z,1.1
2019-01-28T00:41:20.218Z,1.3
2019-01-28T00:44:20.213Z,1
2019-01-28T00:47:20.309Z,1.2
2019-01-28T00:50:20.454Z,1.2
2019-01-28T00:53:20.659Z,1.1
2019-01-28T00:56:20.758Z,1.2
2019-01-28T00:59:20.371Z,1.3
2019-01-28T01:02:20.627Z,1.2
2019-01-28T01:05:20.441Z,1.3
2019-01-28T01:08:20.430Z,1.2
2019-01-28T01:11:20.802Z,1.3
2019-01-28T01:14:20.280Z,1
2019-01-28T01:17:20.315Z,1.3
2019-01-28T01:20:20.425Z,1.2
2019-01-28T01:23:21.084Z,1
2019-01-28T01:26:20.379Z,1.1
2019-01-28T01:29:21.382Z,1.2
2019-01-28T01:32:20.732Z,1.2
2019-01-28T01:35:20.255Z,1.3
2019-01-28T01:38:20.207Z,1.2
2019-01-28T01:41:20.513Z,1.3
2019-01-28T01:44:20.249Z,1
2019-01-28T01:47:20.447Z,1.2
2019-01-28T01:50:20.443Z,1
2019-01-28T01:53:20.822Z,1.1
2019-01-28T01:56:20.744Z,1
2019-01-28T01:59:21.353Z,1
2019-01-28T02:02:20.560Z,1.1
2019-01-28T02:05:20.562Z,1
2019-01-28T02:08:20.364Z,1.2
2019-01-28T02:11:20.495Z,1.3
2019-01-28T02:14:20.211Z,1.1
2019-01-28T02:17:20.292Z,1.1
2019-01-28T02:20:20.483Z,2.2
2019-01-28T02:23:20.262Z,1.2
2019-01-28T02:26:20.113Z,1.1
2019-01-28T20:23:47.032Z,4.5
2019-01-28T20:26:47.739Z,3.8
2019-01-28T20:29:46.943Z,2.6
2019-01-28T20:32:46.429Z,4
2019-01-28T20:35:46.823Z,3.1
2019-01-28T20:38:46.786Z,2.6
2019-01-28T20:41:46.681Z,2.6
2019-01-28T20:44:46.535Z,2.9
2019-01-28T20:47:46.854Z,3.3
2019-01-28T20:50:46.699Z,2.1
2019-01-28T20:53:48.701Z,3.2
2019-01-28T20:56:47.081Z,3.5
2019-01-28T20:59:46.942Z,2.4
2019-01-28T21:02:48.836Z,4.6
2019-01-28T21:05:47.755Z,2.2
2019-01-28T21:08:47.468Z,3.4
2019-01-28T21:11:47.131Z,2.7
2019-01-28T21:14:47.210Z,3.3
2019-01-28T21:17:47.335Z,2.7
2019-01-28T21:20:46.682Z,4.2
2019-01-28T21:23:46.608Z,2.5
2019-01-28T21:26:47.879Z,2.1
2019-01-28T21:29:46.941Z,3.4
2019-01-28T21:32:47.081Z,3.1
2019-01-28T21:35:46.996Z,3
2019-01-28T21:38:46.750Z,5.4
2019-01-28T21:41:49.219Z,3.4
2019-01-28T21:44:48.579Z,2.4
2019-01-28T21:47:46.786Z,3.7
2019-01-28T21:50:46.785Z,2
2019-01-28T21:53:46.856Z,2.3
2019-01-28T21:56:48.136Z,2.7
2019-01-28T21:59:46.751Z,2
2019-01-28T22:02:47.384Z,2.6
2019-01-28T22:05:47.150Z,3.1
2019-01-28T22:08:46.917Z,2.4
2019-01-28T22:11:47.061Z,2.1
2019-01-28T22:14:46.995Z,2.6
2019-01-28T22:17:47.550Z,2.9
2019-01-28T22:20:46.535Z,2.6
2019-01-28T22:23:46.578Z,3
2019-01-28T22:26:46.594Z,2.2
2019-01-28T22:29:47.192Z,3.1
2019-01-28T22:32:46.544Z,1.9
2019-01-28T22:35:46.742Z,1.7
2019-01-28T22:38:50.302Z,1.9
2019-01-28T22:41:46.735Z,1.9
2019-01-28T22:44:46.822Z,1.9
2019-01-28T22:47:46.856Z,2
2019-01-28T22:50:46.978Z,1.7
2019-01-28T22:53:47.402Z,1.9
2019-01-28T22:56:46.523Z,2
2019-01-28T22:59:46.699Z,2
2019-01-28T23:02:46.822Z,2.1
2019-01-28T23:05:47.047Z,2
2019-01-28T23:08:46.894Z,1.8
2019-01-28T23:11:46.639Z,1.7
2019-01-28T23:14:46.982Z,1.9
2019-01-28T23:17:46.970Z,1.9
2019-01-28T23:20:46.712Z,1.7
2019-01-28T23:23:47.113Z,1.7
2019-01-28T23:26:46.852Z,1.9
2019-01-28T23:29:46.682Z,2
2019-01-28T23:32:46.785Z,2.3
2019-01-28T23:35:46.706Z,1.8
2019-01-28T23:38:47.223Z,1.9
2019-01-28T23:41:46.439Z,1.7
2019-01-28T23:44:46.528Z,2.3
2019-01-28T23:47:46.716Z,1.7
2019-01-28T23:50:46.814Z,1.7
2019-01-28T23:53:47.586Z,1.6
2019-01-28T23:56:46.936Z,1.8
2019-01-28T23:59:46.976Z,1.7
